Date,TemperatureHighF,TemperatureAvgF,TemperatureLowF,DewpointHighF,DewpointAvgF,DewpointLowF,HumidityHigh,HumidityAvg,HumidityLow,PressureMaxIn,PressureMinIn,WindSpeedMaxMPH,WindSpeedAvgMPH,GustSpeedMaxMPH,PrecipitationSumIn
2013-2-1,70,60,50,58,49,39,79,68,56,30.34,30.23,11,3,16,0.00
2013-2-2,70,62,54,56,49,38,87,64,50,30.32,30.18,10,2,12,0.00
2013-2-3,71,63,56,56,50,41,91,65,35,30.23,30.14,7,2,13,0.00
2013-2-4,73,62,50,56,49,40,86,65,32,30.20,30.09,11,2,14,0.00
2013-2-5,74,67,56,64,58,51,89,74,56,30.15,30.07,9,2,12,0.00
2013-2-6,77,70,62,68,63,59,95,80,63,30.17,30.08,11,4,16,0.00
2013-2-7,77,73,71,69,65,63,81,76,68,30.14,30.00,11,6,15,0.00
2013-2-8,81,73,68,70,66,59,95,82,49,30.09,29.97,10,3,15,0.00
2013-2-9,75,70,64,68,64,61,97,82,67,30.23,30.08,13,4,16,0.01
2013-2-10,73,71,69,64,62,60,84,73,68,30.33,30.21,16,9,21,0.00
2013-2-11,76,73,70,66,64,61,82,74,66,30.28,30.17,13,6,18,0.00
2013-2-12,79,74,67,70,68,64,92,82,68,30.17,30.03,15,4,18,0.00
2013-2-13,83,76,70,74,70,68,95,83,62,30.06,29.94,14,4,19,0.00
2013-2-14,74,68,62,71,67,62,98,94,89,30.07,29.94,10,2,18,1.23
2013-2-15,72,66,63,67,64,62,98,94,83,30.09,30.00,8,1,12,0.23
2013-2-16,71,64,54,63,56,43,96,77,47,30.14,29.94,20,6,30,0.00
2013-2-17,56,50,43,43,31,19,70,49,30,30.37,30.14,13,5,23,0.00
2013-2-18,67,58,46,56,45,31,71,62,55,30.39,30.27,16,7,19,0.00
2013-2-19,75,70,61,68,61,53,96,75,61,30.27,30.14,17,6,19,0.02
2013-2-20,75,70,63,67,65,62,97,86,70,30.18,30.07,9,2,11,0.00
2013-2-21,77,72,65,71,67,63,97,84,72,30.16,30.06,10,4,13,0.00
2013-2-22,78,75,73,72,70,67,88,84,80,30.16,30.07,15,8,21,0.00
2013-2-23,80,76,71,73,71,69,97,86,75,30.10,29.97,15,7,19,0.01
2013-2-24,85,76,71,74,71,66,97,84,54,30.05,29.95,11,4,14,0.00
2013-2-25,81,75,70,74,71,68,95,88,76,29.98,29.87,14,5,23,0.02
2013-2-26,85,78,75,74,72,69,92,80,58,29.94,29.85,16,6,24,0.00
2013-2-27,76,70,64,73,65,60,96,84,69,30.02,29.92,7,3,14,0.28
2013-2-28,64,63,62,56,54,50,77,72,60,30.00,29.99,4,2,6,0.01